首页
METAR-TAF:

METAR-TAF

机场 :

史密斯堡, 西北特區, 加拿大

纬度: 60-01N, 经度: 111-57W, 海拔: 203米

当前天气观测

该预报发布于1小时和4分钟前的21:00 UTC
风速12节,风向东南,有时为19节阵风,在之间变化
温度 2°C
湿度 64%
气压 1017 hPa
能見度: 24.1公里
少量云层高于2500英尺
阴天层高于15000英尺

METAR: CYSM 152100Z 13012G19KT 100V170 15SM FEW025 OVC150 02/M04 A3003 RMK SC1AC7 SLP186

时间: 16:04 (22:04 UTC)

预报

该预报发布于10小时和26分钟前的11:38 UTC
预报有效从15日的 12点(UTC)到 15日的 24点(UTC)
风速8节,风向南转南东
能見度: 10公里
阴天层高于2000英尺
短暂存在
从 15日的 12点(UTC)到 15日的 16点(UTC)
阴天层高于2500英尺
从 15日的 1600点(UTC)
风速12节,风向南转南东
能見度: 10公里
散云层高于2000英尺
散云层高于20000英尺
短暂存在
从 15日的 16点(UTC)到 15日的 21点(UTC)
多云层高于2000英尺
多云层高于20000英尺
从 15日的 2100点(UTC)
风速15节,风向东南,有时为25节阵风
能見度: 10公里
少量云层高于2000英尺
多云层高于14000英尺

TAF: CYSM 151138Z 1512/1524 16008KT P6SM OVC020 TEMPO 1512/1516 OVC025 FM151600 15012KT P6SM SCT020 SCT200 TEMPO 1516/1521 BKN020 BKN200 FM152100 14015G25KT P6SM FEW020 BKN140 RMK NXT FCST BY 151800Z

超过4000个机场的气象观测和天气预报(METAR&TAF报告)。

可查询的气象台以黄色和红色小点在地图上表示。

将鼠标移到小点上方,可查看气象台名称。

然后点击查看天气观测和预报。

如需切换地图:点击带黑十字的绿色按钮放大地图;点击带横线的绿色按钮缩小地图;或者点击绿色箭头查看邻近地区的地图。


METAR-TAF: